Jamshedpur, India
Current Conditions -  °F | °C
As of 8:20 AM on Saturday 01 Nov 2014 (Local Time) from VECC Reporting Station
Haze Haze  
Wind Chill: 81°   Ceiling: Unl
Heat Index: 84°   Visibility: 1.7mi
Dew Point: 70°   Wind: 5mph
Humidity: 70%   Direction: 350°N
Pressure: 29.91"   Gusts: NA
Location:  22.78°N, 86.21°E
Report Text: VECC 010320Z 35004KT 2800 HZ NSC 27/21 Q1013 BECMG 3000 HZ
Loading
Personal Weather Stations






























Interactive Weather Map
Tropical Storm Tracking
New forecast layout! Learn more

10-Day Weather Forecast

Advertisements
Track Severe Weather on mobile